sensor_id;sensor_type;location;lat;lon;timestamp;temperature;humidity
71117;SHT31;58775;46.992;9.518;2023-06-22T04:17:56;24.60;55.42
71117;SHT31;58775;46.992;9.518;2023-06-22T04:19:58;24.29;56.37
71117;SHT31;58775;46.992;9.518;2023-06-22T04:22:00;24.18;56.84
71117;SHT31;58775;46.992;9.518;2023-06-22T04:24:01;24.09;56.85
71117;SHT31;58775;46.992;9.518;2023-06-22T04:26:03;24.00;57.31
71117;SHT31;58775;46.992;9.518;2023-06-22T04:28:04;23.91;56.78
71117;SHT31;58775;46.992;9.518;2023-06-22T04:30:07;23.89;57.13
71117;SHT31;58775;46.992;9.518;2023-06-22T04:42:39;24.23;54.23
71117;SHT31;58775;46.992;9.518;2023-06-22T04:44:40;24.30;54.69
71117;SHT31;58775;46.992;9.518;2023-06-22T04:46:43;24.29;55.42
71117;SHT31;58775;46.992;9.518;2023-06-22T04:48:45;24.18;55.72
71117;SHT31;58775;46.992;9.518;2023-06-22T04:50:46;24.25;56.10
71117;SHT31;58775;46.992;9.518;2023-06-22T04:52:51;24.32;55.22
71117;SHT31;58775;46.992;9.518;2023-06-22T04:54:53;24.39;55.64
71117;SHT31;58775;46.992;9.518;2023-06-22T04:56:59;24.40;55.37
71117;SHT31;58775;46.992;9.518;2023-06-22T04:59:02;24.37;56.31
71117;SHT31;58775;46.992;9.518;2023-06-22T05:01:06;24.43;55.23
71117;SHT31;58775;46.992;9.518;2023-06-22T05:03:09;24.37;56.09
71117;SHT31;58775;46.992;9.518;2023-06-22T05:05:13;24.43;55.64
71117;SHT31;58775;46.992;9.518;2023-06-22T05:07:42;24.52;55.66
71117;SHT31;58775;46.992;9.518;2023-06-22T05:09:50;24.48;55.49
71117;SHT31;58775;46.992;9.518;2023-06-22T05:11:57;24.63;55.09
71117;SHT31;58775;46.992;9.518;2023-06-22T05:14:04;24.86;55.03
71117;SHT31;58775;46.992;9.518;2023-06-22T05:16:05;24.82;54.83
71117;SHT31;58775;46.992;9.518;2023-06-22T05:18:13;24.79;55.19
71117;SHT31;58775;46.992;9.518;2023-06-22T05:20:14;24.86;55.17
71117;SHT31;58775;46.992;9.518;2023-06-22T05:49:16;26.13;53.07
71117;SHT31;58775;46.992;9.518;2023-06-22T05:51:17;25.95;53.12
71117;SHT31;58775;46.992;9.518;2023-06-22T05:53:19;25.69;53.65
71117;SHT31;58775;46.992;9.518;2023-06-22T05:55:20;25.79;53.79
71117;SHT31;58775;46.992;9.518;2023-06-22T05:57:22;26.03;53.15
71117;SHT31;58775;46.992;9.518;2023-06-22T05:59:24;25.95;52.96
71117;SHT31;58775;46.992;9.518;2023-06-22T06:01:27;25.96;53.89
71117;SHT31;58775;46.992;9.518;2023-06-22T06:03:29;25.71;53.39
71117;SHT31;58775;46.992;9.518;2023-06-22T06:05:31;25.59;54.21
71117;SHT31;58775;46.992;9.518;2023-06-22T06:07:34;25.64;54.64
71117;SHT31;58775;46.992;9.518;2023-06-22T06:09:35;25.61;54.05
71117;SHT31;58775;46.992;9.518;2023-06-22T06:11:37;25.66;54.20
71117;SHT31;58775;46.992;9.518;2023-06-22T06:13:39;25.55;54.57
71117;SHT31;58775;46.992;9.518;2023-06-22T06:15:41;25.66;54.11
71117;SHT31;58775;46.992;9.518;2023-06-22T06:17:52;25.75;53.19
71117;SHT31;58775;46.992;9.518;2023-06-22T06:19:54;25.81;53.03
71117;SHT31;58775;46.992;9.518;2023-06-22T06:21:55;25.86;52.48
71117;SHT31;58775;46.992;9.518;2023-06-22T06:23:58;25.88;53.14
71117;SHT31;58775;46.992;9.518;2023-06-22T06:26:00;25.99;52.46
71117;SHT31;58775;46.992;9.518;2023-06-22T06:28:02;25.93;52.14
71117;SHT31;58775;46.992;9.518;2023-06-22T06:30:05;26.10;52.40
71117;SHT31;58775;46.992;9.518;2023-06-22T06:32:08;25.95;52.75
71117;SHT31;58775;46.992;9.518;2023-06-22T06:34:11;26.03;53.03
71117;SHT31;58775;46.992;9.518;2023-06-22T06:36:13;26.12;52.80
71117;SHT31;58775;46.992;9.518;2023-06-22T06:38:15;26.23;52.83
71117;SHT31;58775;46.992;9.518;2023-06-22T06:40:26;26.35;53.53
71117;SHT31;58775;46.992;9.518;2023-06-22T06:42:27;26.19;52.37
71117;SHT31;58775;46.992;9.518;2023-06-22T06:44:29;26.22;52.34
71117;SHT31;58775;46.992;9.518;2023-06-22T08:44:53;31.04;41.32
71117;SHT31;58775;46.992;9.518;2023-06-22T14:59:52;31.19;54.25
71117;SHT31;58775;46.992;9.518;2023-06-22T15:01:57;31.40;53.57
71117;SHT31;58775;46.992;9.518;2023-06-22T15:04:06;31.38;51.16
71117;SHT31;58775;46.992;9.518;2023-06-22T16:26:39;29.43;52.09
71117;SHT31;58775;46.992;9.518;2023-06-22T16:29:17;29.19;52.28
71117;SHT31;58775;46.992;9.518;2023-06-22T16:31:22;29.29;51.65
71117;SHT31;58775;46.992;9.518;2023-06-22T16:33:25;29.16;52.01
71117;SHT31;58775;46.992;9.518;2023-06-22T16:35:28;29.02;51.76
71117;SHT31;58775;46.992;9.518;2023-06-22T16:37:33;28.98;53.67
71117;SHT31;58775;46.992;9.518;2023-06-22T16:39:35;29.03;53.46
71117;SHT31;58775;46.992;9.518;2023-06-22T16:41:37;28.96;52.25
71117;SHT31;58775;46.992;9.518;2023-06-22T16:43:40;28.94;53.09
71117;SHT31;58775;46.992;9.518;2023-06-22T16:45:41;28.96;52.78
71117;SHT31;58775;46.992;9.518;2023-06-22T16:47:47;28.75;54.16
71117;SHT31;58775;46.992;9.518;2023-06-22T16:49:49;28.57;55.81
71117;SHT31;58775;46.992;9.518;2023-06-22T16:51:51;28.50;54.35
71117;SHT31;58775;46.992;9.518;2023-06-22T16:53:55;28.47;52.67
71117;SHT31;58775;46.992;9.518;2023-06-22T16:56:00;28.44;52.36
71117;SHT31;58775;46.992;9.518;2023-06-22T16:58:09;28.51;52.40
71117;SHT31;58775;46.992;9.518;2023-06-22T17:00:18;28.43;52.29
71117;SHT31;58775;46.992;9.518;2023-06-22T17:02:23;28.31;51.69
71117;SHT31;58775;46.992;9.518;2023-06-22T17:04:25;28.10;52.42
71117;SHT31;58775;46.992;9.518;2023-06-22T17:06:34;27.82;52.05
71117;SHT31;58775;46.992;9.518;2023-06-22T17:08:42;27.77;51.65
71117;SHT31;58775;46.992;9.518;2023-06-22T17:10:44;27.71;52.54
71117;SHT31;58775;46.992;9.518;2023-06-22T17:12:46;27.39;53.32
71117;SHT31;58775;46.992;9.518;2023-06-22T18:28:56;20.31;91.23
71117;SHT31;58775;46.992;9.518;2023-06-22T18:30:58;20.36;91.37
71117;SHT31;58775;46.992;9.518;2023-06-22T18:32:59;20.24;91.93
71117;SHT31;58775;46.992;9.518;2023-06-22T18:35:01;20.21;92.03
71117;SHT31;58775;46.992;9.518;2023-06-22T18:37:06;20.18;92.25
71117;SHT31;58775;46.992;9.518;2023-06-22T18:39:10;20.18;92.59
71117;SHT31;58775;46.992;9.518;2023-06-22T18:41:23;20.20;92.47
71117;SHT31;58775;46.992;9.518;2023-06-22T18:43:24;20.13;91.79
71117;SHT31;58775;46.992;9.518;2023-06-22T18:45:27;20.10;91.53
71117;SHT31;58775;46.992;9.518;2023-06-22T18:47:30;20.12;92.91
71117;SHT31;58775;46.992;9.518;2023-06-22T18:51:49;20.17;94.16
71117;SHT31;58775;46.992;9.518;2023-06-22T18:54:04;20.33;90.76
71117;SHT31;58775;46.992;9.518;2023-06-22T18:56:13;20.55;88.49
71117;SHT31;58775;46.992;9.518;2023-06-22T18:58:23;20.74;85.88
71117;SHT31;58775;46.992;9.518;2023-06-22T19:00:31;20.78;89.44
71117;SHT31;58775;46.992;9.518;2023-06-22T19:05:58;20.94;89.48
71117;SHT31;58775;46.992;9.518;2023-06-22T19:12:25;20.64;90.73
71117;SHT31;58775;46.992;9.518;2023-06-22T19:14:32;20.71;89.71
71117;SHT31;58775;46.992;9.518;2023-06-22T19:17:08;20.67;89.34
71117;SHT31;58775;46.992;9.518;2023-06-22T19:19:53;20.98;81.71
71117;SHT31;58775;46.992;9.518;2023-06-22T19:37:12;21.90;74.67
71117;SHT31;58775;46.992;9.518;2023-06-22T20:10:18;22.00;70.85
71117;SHT31;58775;46.992;9.518;2023-06-22T20:12:23;22.00;70.82
71117;SHT31;58775;46.992;9.518;2023-06-22T20:14:33;22.10;68.59
71117;SHT31;58775;46.992;9.518;2023-06-22T20:16:46;22.07;71.71
71117;SHT31;58775;46.992;9.518;2023-06-22T20:19:10;22.11;71.26
71117;SHT31;58775;46.992;9.518;2023-06-22T20:21:15;21.96;69.66
71117;SHT31;58775;46.992;9.518;2023-06-22T20:23:18;21.98;69.62
71117;SHT31;58775;46.992;9.518;2023-06-22T20:25:24;22.08;74.28
71117;SHT31;58775;46.992;9.518;2023-06-22T20:27:26;21.57;77.75
71117;SHT31;58775;46.992;9.518;2023-06-22T20:29:29;21.51;78.65
71117;SHT31;58775;46.992;9.518;2023-06-22T20:31:34;21.42;76.80
71117;SHT31;58775;46.992;9.518;2023-06-22T20:33:37;21.13;80.94
71117;SHT31;58775;46.992;9.518;2023-06-22T20:35:39;21.19;79.46
71117;SHT31;58775;46.992;9.518;2023-06-22T20:37:41;21.28;77.65
71117;SHT31;58775;46.992;9.518;2023-06-22T20:39:42;20.94;81.33
71117;SHT31;58775;46.992;9.518;2023-06-22T20:41:44;20.63;82.01
71117;SHT31;58775;46.992;9.518;2023-06-22T20:43:52;20.78;80.00
71117;SHT31;58775;46.992;9.518;2023-06-22T20:45:54;20.54;82.38
71117;SHT31;58775;46.992;9.518;2023-06-22T20:47:57;20.57;81.97
71117;SHT31;58775;46.992;9.518;2023-06-22T20:49:59;20.63;81.09
71117;SHT31;58775;46.992;9.518;2023-06-22T20:52:00;20.58;81.52
71117;SHT31;58775;46.992;9.518;2023-06-22T20:54:07;20.52;82.50
71117;SHT31;58775;46.992;9.518;2023-06-22T20:56:08;20.44;82.76
71117;SHT31;58775;46.992;9.518;2023-06-22T20:58:10;20.49;82.46
71117;SHT31;58775;46.992;9.518;2023-06-22T21:00:13;20.33;83.44
71117;SHT31;58775;46.992;9.518;2023-06-22T21:02:18;20.44;82.02
71117;SHT31;58775;46.992;9.518;2023-06-22T21:04:23;20.36;82.58
71117;SHT31;58775;46.992;9.518;2023-06-22T21:06:25;20.28;83.76
71117;SHT31;58775;46.992;9.518;2023-06-22T21:08:28;20.21;83.28
71117;SHT31;58775;46.992;9.518;2023-06-22T21:10:30;20.13;82.44
71117;SHT31;58775;46.992;9.518;2023-06-22T21:12:32;20.28;76.71
71117;SHT31;58775;46.992;9.518;2023-06-22T21:14:37;20.61;71.85
71117;SHT31;58775;46.992;9.518;2023-06-22T21:16:40;20.74;72.76
71117;SHT31;58775;46.992;9.518;2023-06-22T21:18:42;21.00;71.60
71117;SHT31;58775;46.992;9.518;2023-06-22T21:20:45;21.05;70.08
71117;SHT31;58775;46.992;9.518;2023-06-22T21:22:48;21.10;70.01
71117;SHT31;58775;46.992;9.518;2023-06-22T21:25:04;21.19;70.78
71117;SHT31;58775;46.992;9.518;2023-06-22T21:27:07;21.28;73.13
71117;SHT31;58775;46.992;9.518;2023-06-22T21:29:09;21.25;72.12
71117;SHT31;58775;46.992;9.518;2023-06-22T21:31:11;21.20;70.52
71117;SHT31;58775;46.992;9.518;2023-06-22T21:33:14;21.15;69.40
71117;SHT31;58775;46.992;9.518;2023-06-22T21:35:16;21.22;67.27
71117;SHT31;58775;46.992;9.518;2023-06-22T21:37:18;21.30;68.03
71117;SHT31;58775;46.992;9.518;2023-06-22T21:39:20;21.40;68.22
71117;SHT31;58775;46.992;9.518;2023-06-22T21:41:23;21.26;67.99
71117;SHT31;58775;46.992;9.518;2023-06-22T21:43:26;21.32;66.82
71117;SHT31;58775;46.992;9.518;2023-06-22T21:45:28;21.39;66.15
71117;SHT31;58775;46.992;9.518;2023-06-22T21:47:30;21.36;68.03
71117;SHT31;58775;46.992;9.518;2023-06-22T21:49:32;21.49;67.95
71117;SHT31;58775;46.992;9.518;2023-06-22T21:51:33;21.54;66.79
71117;SHT31;58775;46.992;9.518;2023-06-22T21:53:36;21.59;67.66
71117;SHT31;58775;46.992;9.518;2023-06-22T21:55:38;21.45;65.23
71117;SHT31;58775;46.992;9.518;2023-06-22T21:57:40;21.43;66.24
71117;SHT31;58775;46.992;9.518;2023-06-22T21:59:43;21.45;66.83
71117;SHT31;58775;46.992;9.518;2023-06-22T22:01:45;21.43;67.66
71117;SHT31;58775;46.992;9.518;2023-06-22T22:03:47;21.36;67.75
71117;SHT31;58775;46.992;9.518;2023-06-22T22:05:50;21.50;67.75
71117;SHT31;58775;46.992;9.518;2023-06-22T22:07:52;21.42;68.47
71117;SHT31;58775;46.992;9.518;2023-06-22T22:09:53;21.28;67.34
71117;SHT31;58775;46.992;9.518;2023-06-22T22:11:55;21.33;66.30
71117;SHT31;58775;46.992;9.518;2023-06-22T22:13:58;21.36;66.66
71117;SHT31;58775;46.992;9.518;2023-06-22T22:16:01;21.23;65.81
71117;SHT31;58775;46.992;9.518;2023-06-22T22:18:05;21.33;66.04
71117;SHT31;58775;46.992;9.518;2023-06-22T22:20:10;21.25;66.33
71117;SHT31;58775;46.992;9.518;2023-06-22T22:22:14;21.30;66.25
71117;SHT31;58775;46.992;9.518;2023-06-22T22:24:16;21.26;66.40
71117;SHT31;58775;46.992;9.518;2023-06-22T22:26:17;21.39;65.91
71117;SHT31;58775;46.992;9.518;2023-06-22T22:28:19;21.30;66.76
71117;SHT31;58775;46.992;9.518;2023-06-22T22:30:21;21.18;66.92
71117;SHT31;58775;46.992;9.518;2023-06-22T22:32:24;21.28;66.57
71117;SHT31;58775;46.992;9.518;2023-06-22T22:34:25;21.20;67.08
71117;SHT31;58775;46.992;9.518;2023-06-22T22:36:28;21.23;66.78
71117;SHT31;58775;46.992;9.518;2023-06-22T22:38:31;21.13;67.39
71117;SHT31;58775;46.992;9.518;2023-06-22T22:40:37;21.06;67.84
71117;SHT31;58775;46.992;9.518;2023-06-22T22:42:39;21.16;67.61
71117;SHT31;58775;46.992;9.518;2023-06-22T22:44:42;21.16;67.04
71117;SHT31;58775;46.992;9.518;2023-06-22T22:46:44;21.10;67.25
71117;SHT31;58775;46.992;9.518;2023-06-22T22:48:46;20.94;67.90
71117;SHT31;58775;46.992;9.518;2023-06-22T22:50:49;20.96;67.60
71117;SHT31;58775;46.992;9.518;2023-06-22T22:52:51;21.03;67.41
71117;SHT31;58775;46.992;9.518;2023-06-22T22:54:53;20.99;68.01
71117;SHT31;58775;46.992;9.518;2023-06-22T22:56:54;21.06;67.12
71117;SHT31;58775;46.992;9.518;2023-06-22T22:58:57;21.00;67.86
71117;SHT31;58775;46.992;9.518;2023-06-22T23:00:59;20.92;67.79
71117;SHT31;58775;46.992;9.518;2023-06-22T23:03:02;20.94;68.40
71117;SHT31;58775;46.992;9.518;2023-06-22T23:05:04;20.89;67.67
71117;SHT31;58775;46.992;9.518;2023-06-22T23:07:07;20.81;68.71
71117;SHT31;58775;46.992;9.518;2023-06-22T23:09:09;20.94;68.70
71117;SHT31;58775;46.992;9.518;2023-06-22T23:11:12;20.59;69.19
71117;SHT31;58775;46.992;9.518;2023-06-22T23:13:14;20.59;69.81
71117;SHT31;58775;46.992;9.518;2023-06-22T23:15:16;20.47;71.20
71117;SHT31;58775;46.992;9.518;2023-06-22T23:17:18;20.54;71.20
71117;SHT31;58775;46.992;9.518;2023-06-22T23:19:20;20.43;72.23
71117;SHT31;58775;46.992;9.518;2023-06-22T23:21:22;20.38;73.51
71117;SHT31;58775;46.992;9.518;2023-06-22T23:23:25;20.26;75.29
71117;SHT31;58775;46.992;9.518;2023-06-22T23:25:26;20.18;76.10
71117;SHT31;58775;46.992;9.518;2023-06-22T23:27:28;19.67;78.65
71117;SHT31;58775;46.992;9.518;2023-06-22T23:29:30;19.67;79.50
71117;SHT31;58775;46.992;9.518;2023-06-22T23:31:34;19.46;80.82
71117;SHT31;58775;46.992;9.518;2023-06-22T23:33:36;19.44;82.81
